Time;durP1;ratioP1;P1;durP2;ratioP2;P2;SDS_P1;SDS_P2;PMS_P1;PMS_P2;Temp;Humidity;BMP_temperature;BMP_pressure;BME280_temperature;BME280_humidity;BME280_pressure;Samples;Min_cycle;Max_cycle;Signal;HPM_P1;HPM_P2
2023/01/21 00:02:12;;;;;;;44.83;36.97;;;-2.10;99.90;;;;;;5008234;28;20057;-77
2023/01/21 00:04:37;;;;;;;41.58;33.65;;;-2.20;99.90;;;;;;5007852;28;20076;-77
2023/01/21 00:07:07;;;;;;;44.33;33.72;;;-2.20;99.90;;;;;;5009502;28;20057;-77
2023/01/21 00:09:33;;;;;;;38.85;30.77;;;-2.20;99.90;;;;;;5008176;28;20035;-77
2023/01/21 00:12:01;;;;;;;43.65;37.88;;;-2.20;99.90;;;;;;5009148;28;20037;-77
2023/01/21 00:14:29;;;;;;;45.78;34.97;;;-2.30;99.90;;;;;;4991889;28;20079;-78
2023/01/21 00:16:55;;;;;;;36.08;32.17;;;-2.40;99.90;;;;;;5008006;28;20090;-78
2023/01/21 00:19:20;;;;;;;39.63;35.42;;;-2.40;99.90;;;;;;5009276;28;20026;-77
2023/01/21 00:21:46;;;;;;;40.90;35.17;;;-2.50;99.90;;;;;;5008130;28;20450;-77
2023/01/21 00:24:12;;;;;;;38.83;33.22;;;-2.60;99.90;;;;;;5008971;28;20038;-77
2023/01/21 00:26:37;;;;;;;39.30;31.13;;;-2.60;99.90;;;;;;5008503;28;20547;-78
2023/01/21 00:29:03;;;;;;;42.03;35.10;;;-2.60;99.90;;;;;;5009063;28;20026;-77
2023/01/21 00:31:29;;;;;;;35.83;31.77;;;-2.70;99.90;;;;;;5009134;28;20397;-78
2023/01/21 00:33:55;;;;;;;32.40;28.58;;;-2.80;99.90;;;;;;5008711;28;20022;-77
2023/01/21 00:36:23;;;;;;;45.00;34.42;;;-2.70;99.90;;;;;;5008812;28;20062;-78
2023/01/21 00:38:50;;;;;;;33.20;28.67;;;-2.70;99.90;;;;;;5007255;28;20085;-77
2023/01/21 00:41:16;;;;;;;39.92;32.47;;;-2.70;99.90;;;;;;5008846;28;20058;-77
2023/01/21 00:43:42;;;;;;;37.13;33.00;;;-2.70;99.90;;;;;;5007699;28;20026;-77
2023/01/21 00:46:09;;;;;;;36.70;31.77;;;-2.70;99.90;;;;;;5006922;28;20401;-77
2023/01/21 00:48:35;;;;;;;40.03;30.92;;;-2.60;99.90;;;;;;5008592;28;20544;-77
2023/01/21 00:51:02;;;;;;;37.17;32.28;;;-2.60;99.90;;;;;;5008824;28;20490;-77
2023/01/21 00:53:30;;;;;;;36.35;31.73;;;-2.60;99.90;;;;;;5008651;28;20065;-77
2023/01/21 00:56:05;;;;;;;33.95;30.33;;;-2.70;99.90;;;;;;5006865;28;20030;-77
2023/01/21 00:58:31;;;;;;;41.25;31.88;;;-2.70;99.90;;;;;;5008666;28;20034;-78
2023/01/21 01:01:09;;;;;;;37.70;33.50;;;-2.80;99.90;;;;;;5007116;28;20035;-77
2023/01/21 01:03:36;;;;;;;35.55;31.73;;;-2.80;99.90;;;;;;5023561;28;20045;-78
2023/01/21 01:06:08;;;;;;;34.38;30.55;;;-2.80;99.90;;;;;;5016892;28;20533;-77
2023/01/21 01:08:34;;;;;;;41.63;33.22;;;-2.90;99.90;;;;;;5008435;28;20093;-77
2023/01/21 01:11:02;;;;;;;41.90;31.65;;;-2.90;99.90;;;;;;4990752;28;20038;-78
2023/01/21 01:13:28;;;;;;;41.60;31.17;;;-2.90;99.90;;;;;;5006959;28;20032;-77
2023/01/21 01:15:56;;;;;;;40.88;32.58;;;-2.90;99.90;;;;;;5008150;28;20034;-77
2023/01/21 01:18:23;;;;;;;37.90;33.38;;;-2.90;99.90;;;;;;5007929;28;20532;-77
2023/01/21 01:20:49;;;;;;;34.88;30.65;;;-3.00;99.90;;;;;;5006847;28;20058;-77
2023/01/21 01:23:15;;;;;;;43.40;34.88;;;-3.00;99.90;;;;;;5008090;28;20037;-77
2023/01/21 01:25:41;;;;;;;48.20;37.60;;;-3.00;99.90;;;;;;5007817;28;20393;-77
2023/01/21 01:28:07;;;;;;;47.58;38.08;;;-3.00;99.90;;;;;;4990266;28;20038;-77
2023/01/21 01:30:34;;;;;;;41.38;36.70;;;-2.90;99.90;;;;;;5008113;28;20030;-77
2023/01/21 01:33:00;;;;;;;44.17;36.10;;;-2.90;99.90;;;;;;5007895;28;20026;-77
2023/01/21 01:35:26;;;;;;;51.60;39.80;;;-2.80;99.90;;;;;;4990067;28;20369;-77
2023/01/21 01:37:53;;;;;;;44.60;34.70;;;-2.80;99.90;;;;;;5007980;28;20047;-77
2023/01/21 01:40:18;;;;;;;48.97;38.20;;;-2.80;99.90;;;;;;5006185;28;20042;-77
2023/01/21 01:42:44;;;;;;;46.72;37.72;;;-2.80;99.90;;;;;;5007716;28;20041;-78
2023/01/21 01:45:13;;;;;;;46.42;37.20;;;-2.80;99.90;;;;;;5006672;28;20034;-77
2023/01/21 01:47:48;;;;;;;45.70;37.33;;;-2.90;99.90;;;;;;5007574;28;20512;-77
2023/01/21 01:50:18;;;;;;;42.17;34.35;;;-2.90;99.90;;;;;;4990129;28;20023;-78
2023/01/21 01:52:44;;;;;;;45.67;37.20;;;-2.90;99.90;;;;;;5001882;28;20026;-77
2023/01/21 01:55:12;;;;;;;48.80;40.50;;;-3.00;99.90;;;;;;5006365;28;20086;-77
2023/01/21 01:57:42;;;;;;;48.30;39.72;;;-3.00;99.90;;;;;;5006036;28;20070;-77
2023/01/21 02:00:11;;;;;;;54.20;42.85;;;-3.10;99.90;;;;;;5007224;28;20061;-77
2023/01/21 02:02:42;;;;;;;56.35;44.22;;;-3.10;99.90;;;;;;5006910;28;20061;-77
2023/01/21 02:05:09;;;;;;;49.67;40.63;;;-3.10;99.90;;;;;;5004963;28;20116;-77
2023/01/21 02:07:42;;;;;;;51.63;43.17;;;-3.10;99.90;;;;;;5007001;28;20028;-77
2023/01/21 02:10:13;;;;;;;55.72;41.60;;;-3.00;99.90;;;;;;5007208;28;20161;-77
2023/01/21 02:12:42;;;;;;;52.67;39.90;;;-3.00;99.90;;;;;;5007017;28;20030;-77
2023/01/21 02:15:09;;;;;;;46.45;35.50;;;-3.00;99.90;;;;;;5005876;28;20030;-77
2023/01/21 02:17:38;;;;;;;56.25;41.88;;;-3.00;99.90;;;;;;5005679;28;20058;-77
2023/01/21 02:20:25;;;;;;;53.08;42.38;;;-3.00;99.90;;;;;;5005853;28;20041;-77
2023/01/21 02:22:54;;;;;;;64.65;45.67;;;-3.00;99.90;;;;;;5005538;28;20086;-77
2023/01/21 02:25:44;;;;;;;54.00;42.88;;;-3.10;99.90;;;;;;5006825;28;20149;-77
2023/01/21 02:28:48;;;;;;;58.80;43.92;;;-3.00;99.90;;;;;;5006931;28;20466;-77
2023/01/21 02:31:38;;;;;;;49.33;41.08;;;-2.90;99.90;;;;;;5005627;28;20097;-77
2023/01/21 02:34:20;;;;;;;55.78;44.22;;;-2.90;99.90;;;;;;5005455;28;20474;-77
2023/01/21 02:36:57;;;;;;;53.38;42.50;;;-2.70;99.90;;;;;;5005433;28;20050;-77
2023/01/21 02:40:11;;;;;;;51.28;41.97;;;-2.70;99.90;;;;;;5006832;28;20077;-77
2023/01/21 02:42:41;;;;;;;53.65;46.15;;;-2.60;99.90;;;;;;5021714;28;20145;-77
2023/01/21 02:45:46;;;;;;;63.58;46.38;;;-2.50;99.90;;;;;;5006515;28;20030;-77
2023/01/21 02:48:30;;;;;;;66.88;43.47;;;-2.50;99.90;;;;;;5007265;28;20401;-77
2023/01/21 02:50:57;;;;;;;53.83;42.30;;;-2.40;99.90;;;;;;5006442;28;20042;-77
2023/01/21 02:53:31;;;;;;;60.10;41.38;;;-2.40;99.90;;;;;;5006249;28;20034;-77
2023/01/21 02:56:05;;;;;;;65.85;45.58;;;-2.40;99.90;;;;;;5005850;28;20366;-77
2023/01/21 02:58:36;;;;;;;54.40;43.83;;;-2.40;99.90;;;;;;5006063;28;20034;-78
2023/01/21 03:01:46;;;;;;;46.55;39.35;;;-2.40;99.90;;;;;;5006350;28;20031;-78
2023/01/21 03:04:30;;;;;;;60.35;43.33;;;-2.40;99.90;;;;;;5043757;28;20511;-77
2023/01/21 03:07:06;;;;;;;51.08;41.45;;;-2.50;99.90;;;;;;5009253;28;20053;-78
2023/01/21 03:09:33;;;;;;;58.00;39.80;;;-2.50;99.90;;;;;;5005080;28;20481;-77
2023/01/21 03:12:37;;;;;;;53.42;42.90;;;-2.50;99.90;;;;;;5006105;28;20026;-78
2023/01/21 03:18:19;;;;;;;50.65;38.63;;;-2.70;99.90;;;;;;5006213;28;20448;-77
2023/01/21 03:20:53;;;;;;;50.53;39.72;;;-2.60;99.90;;;;;;5006011;28;20094;-77
2023/01/21 03:23:29;;;;;;;47.72;36.78;;;-2.70;99.90;;;;;;5006328;28;20035;-77
2023/01/21 03:25:59;;;;;;;52.65;41.60;;;-2.80;99.90;;;;;;5006256;28;20481;-77
2023/01/21 03:28:29;;;;;;;48.03;42.75;;;-2.70;99.90;;;;;;5004812;28;20046;-77
2023/01/21 03:31:15;;;;;;;57.92;40.55;;;-2.70;99.90;;;;;;5004712;28;20026;-77
2023/01/21 03:33:45;;;;;;;59.90;40.72;;;-2.80;99.90;;;;;;5004886;28;20461;-77
2023/01/21 03:36:36;;;;;;;50.35;40.75;;;-2.90;99.90;;;;;;5021380;28;20489;-77
2023/01/21 03:39:37;;;;;;;52.88;38.78;;;-2.90;99.90;;;;;;5005652;28;20060;-77
2023/01/21 03:42:03;;;;;;;59.50;42.20;;;-2.90;99.90;;;;;;5015347;28;20038;-77
2023/01/21 03:44:29;;;;;;;52.92;40.72;;;-2.90;99.90;;;;;;5004873;28;20088;-77
2023/01/21 03:47:03;;;;;;;48.92;37.80;;;-2.90;99.90;;;;;;5005985;28;20026;-77
2023/01/21 03:49:43;;;;;;;46.67;37.17;;;-2.90;99.90;;;;;;5004553;28;20031;-78
2023/01/21 03:52:12;;;;;;;52.10;38.50;;;-3.00;99.90;;;;;;5005891;28;20045;-77
2023/01/21 03:54:39;;;;;;;48.47;37.38;;;-3.00;99.90;;;;;;5005836;28;20026;-78
2023/01/21 03:57:05;;;;;;;48.78;38.22;;;-3.00;99.90;;;;;;5006111;28;20441;-77
2023/01/21 03:59:31;;;;;;;51.75;40.72;;;-3.10;99.90;;;;;;5004376;28;20026;-77
2023/01/21 04:01:56;;;;;;;50.05;39.97;;;-3.00;99.90;;;;;;5004642;28;20041;-77
2023/01/21 04:04:22;;;;;;;51.53;39.95;;;-3.00;99.90;;;;;;5004689;28;20030;-77
2023/01/21 04:06:48;;;;;;;58.97;39.28;;;-3.10;99.90;;;;;;5004478;28;20038;-77
2023/01/21 04:09:14;;;;;;;45.03;39.47;;;-3.00;99.90;;;;;;5007498;28;20026;-77
2023/01/21 04:11:40;;;;;;;52.33;39.33;;;-3.00;99.90;;;;;;5009307;28;20038;-77
2023/01/21 04:14:06;;;;;;;56.47;42.15;;;-3.10;99.90;;;;;;4991827;28;20109;-77
2023/01/21 04:16:32;;;;;;;55.95;38.80;;;-3.00;99.90;;;;;;5008804;28;20034;-77
2023/01/21 04:18:57;;;;;;;56.22;42.05;;;-3.00;99.90;;;;;;5009307;28;20038;-77
2023/01/21 04:21:23;;;;;;;53.72;40.10;;;-3.00;99.90;;;;;;5008027;28;20045;-78
2023/01/21 04:23:49;;;;;;;53.05;39.40;;;-3.10;99.90;;;;;;5009246;28;20465;-77
2023/01/21 04:26:15;;;;;;;53.03;42.33;;;-3.10;99.90;;;;;;5008810;28;20038;-77
2023/01/21 04:28:41;;;;;;;57.20;42.42;;;-3.10;99.90;;;;;;5008925;28;20035;-77
2023/01/21 04:31:07;;;;;;;55.33;42.47;;;-3.20;99.90;;;;;;5009316;28;20034;-77
2023/01/21 04:33:33;;;;;;;47.70;38.30;;;-3.20;99.90;;;;;;5007754;28;20034;-77
2023/01/21 04:35:59;;;;;;;59.28;41.67;;;-3.20;99.90;;;;;;5008643;28;20061;-77
2023/01/21 04:38:26;;;;;;;55.70;41.85;;;-3.20;99.90;;;;;;5007409;28;20050;-78
2023/01/21 04:40:51;;;;;;;49.47;40.30;;;-3.20;99.90;;;;;;5007637;28;20034;-77
2023/01/21 04:43:17;;;;;;;50.13;41.15;;;-3.30;99.90;;;;;;5007538;28;20035;-78
2023/01/21 04:45:43;;;;;;;49.53;36.88;;;-3.30;99.90;;;;;;4987857;28;20397;-77
2023/01/21 04:48:09;;;;;;;50.03;41.08;;;-3.40;99.90;;;;;;4989139;28;20035;-77
2023/01/21 04:50:36;;;;;;;53.28;42.70;;;-3.30;99.90;;;;;;4987855;28;20478;-77
2023/01/21 04:53:02;;;;;;;65.25;41.83;;;-3.30;99.90;;;;;;4988051;28;20027;-77
2023/01/21 04:55:28;;;;;;;62.95;39.60;;;-3.40;99.90;;;;;;4997438;28;20038;-78
2023/01/21 04:57:54;;;;;;;65.35;43.92;;;-3.40;99.90;;;;;;5008472;28;20064;-77
2023/01/21 05:00:20;;;;;;;51.50;41.03;;;-3.40;99.90;;;;;;5007258;28;20097;-77
2023/01/21 05:02:45;;;;;;;53.42;40.03;;;-3.40;99.90;;;;;;5007217;28;20039;-77
2023/01/21 05:05:11;;;;;;;52.88;42.20;;;-3.40;99.90;;;;;;5008340;28;20077;-77
2023/01/21 05:07:37;;;;;;;56.10;43.72;;;-3.50;99.90;;;;;;5008097;28;20061;-77
2023/01/21 05:10:03;;;;;;;61.50;42.97;;;-3.50;99.90;;;;;;5008283;28;20057;-77
2023/01/21 05:12:29;;;;;;;66.78;44.72;;;-3.40;99.90;;;;;;5008388;28;20031;-77
2023/01/21 05:14:58;;;;;;;53.95;39.72;;;-3.50;99.90;;;;;;5006808;28;20037;-77
2023/01/21 05:17:24;;;;;;;60.00;43.35;;;-3.40;99.90;;;;;;5006666;28;20110;-77
2023/01/21 05:19:50;;;;;;;56.30;44.42;;;-3.40;99.90;;;;;;4989831;28;20397;-77
2023/01/21 05:22:16;;;;;;;65.43;42.83;;;-3.40;99.90;;;;;;5006832;28;20034;-77
2023/01/21 05:24:42;;;;;;;57.42;44.47;;;-3.50;99.90;;;;;;5006541;28;20399;-77
2023/01/21 05:27:07;;;;;;;60.45;44.92;;;-3.50;99.90;;;;;;5007699;28;20030;-77
2023/01/21 05:29:33;;;;;;;54.25;43.65;;;-3.50;99.90;;;;;;5008030;28;20030;-77
2023/01/21 05:32:00;;;;;;;54.25;41.97;;;-3.50;99.90;;;;;;5006596;28;20054;-77
2023/01/21 05:34:25;;;;;;;53.35;41.70;;;-3.50;99.90;;;;;;5006792;28;20049;-77
2023/01/21 05:36:51;;;;;;;55.67;42.33;;;-3.50;99.90;;;;;;4990094;28;20038;-77
2023/01/21 05:39:17;;;;;;;54.50;43.35;;;-3.60;99.90;;;;;;5006348;28;20050;-77
2023/01/21 05:41:42;;;;;;;47.15;40.13;;;-3.60;99.90;;;;;;5006731;28;20030;-77
2023/01/21 05:44:09;;;;;;;58.03;43.58;;;-3.60;99.90;;;;;;5006364;28;20034;-77
2023/01/21 05:46:35;;;;;;;62.13;45.13;;;-3.60;99.90;;;;;;5007276;28;20034;-77
2023/01/21 05:49:01;;;;;;;61.65;46.95;;;-3.70;99.90;;;;;;5006396;28;20073;-77
2023/01/21 05:51:26;;;;;;;51.70;41.05;;;-3.70;99.90;;;;;;5007495;28;20030;-78
2023/01/21 05:53:52;;;;;;;72.70;46.17;;;-3.70;99.90;;;;;;5007508;28;20567;-77
2023/01/21 05:56:18;;;;;;;59.85;40.78;;;-3.70;99.90;;;;;;4999320;28;20031;-77
2023/01/21 05:58:44;;;;;;;54.90;43.38;;;-3.80;99.90;;;;;;4993414;28;20061;-76
2023/01/21 06:01:09;;;;;;;47.25;40.55;;;-3.80;99.90;;;;;;5006177;28;20026;-76
2023/01/21 06:03:36;;;;;;;58.45;42.15;;;-3.70;99.90;;;;;;5002086;28;20098;-76
2023/01/21 06:06:03;;;;;;;59.78;43.63;;;-3.70;99.90;;;;;;5005403;28;20197;-76
2023/01/21 06:08:29;;;;;;;62.13;44.95;;;-3.80;99.90;;;;;;5006932;28;20041;-76
2023/01/21 06:10:55;;;;;;;57.10;44.42;;;-3.80;99.90;;;;;;5005181;28;20100;-76
2023/01/21 06:13:21;;;;;;;54.50;43.38;;;-3.90;99.90;;;;;;4991582;28;20504;-76
2023/01/21 06:15:48;;;;;;;60.10;45.25;;;-3.90;99.90;;;;;;4994836;28;20034;-76
2023/01/21 06:18:14;;;;;;;58.15;43.05;;;-3.90;99.90;;;;;;4988705;28;20058;-77
2023/01/21 06:20:40;;;;;;;61.47;44.75;;;-3.80;99.90;;;;;;5006469;28;20038;-76
2023/01/21 06:23:06;;;;;;;51.50;41.60;;;-3.80;99.90;;;;;;5004681;28;20030;-76
2023/01/21 06:25:33;;;;;;;70.70;48.42;;;-3.70;99.90;;;;;;5002033;28;20030;-78
2023/01/21 06:28:00;;;;;;;68.15;48.33;;;-3.80;99.90;;;;;;5003465;28;20034;-76
2023/01/21 06:30:26;;;;;;;67.00;47.67;;;-3.80;99.90;;;;;;4986203;28;20027;-76
2023/01/21 06:32:52;;;;;;;72.65;49.50;;;-3.80;99.90;;;;;;4958969;28;20037;-77
2023/01/21 06:35:18;;;;;;;67.95;46.95;;;-4.10;99.90;;;;;;5003224;28;20117;-77
2023/01/21 06:37:45;;;;;;;61.97;47.95;;;-4.00;99.90;;;;;;4972908;28;20026;-76
2023/01/21 06:40:12;;;;;;;66.18;44.95;;;-4.00;99.90;;;;;;4988656;28;20038;-78
2023/01/21 06:42:38;;;;;;;67.03;48.70;;;-4.00;99.90;;;;;;5006208;28;20378;-76
2023/01/21 06:45:04;;;;;;;63.38;48.83;;;-4.00;99.90;;;;;;5006366;28;20041;-76
2023/01/21 06:47:30;;;;;;;59.28;46.60;;;-4.00;99.90;;;;;;4988299;28;19936;-76
2023/01/21 06:49:55;;;;;;;62.45;46.65;;;-4.00;99.90;;;;;;5004936;28;20034;-77
2023/01/21 06:52:22;;;;;;;60.70;45.05;;;-3.90;99.90;;;;;;4972671;28;20019;-78
2023/01/21 06:54:48;;;;;;;59.05;43.95;;;-4.00;99.90;;;;;;5003229;28;20033;-78
2023/01/21 06:57:14;;;;;;;56.50;46.33;;;-4.00;99.90;;;;;;5002206;28;20527;-77
2023/01/21 06:59:40;;;;;;;62.08;45.28;;;-4.10;99.90;;;;;;5002793;28;20400;-76
2023/01/21 07:02:06;;;;;;;65.63;44.35;;;-4.10;99.90;;;;;;5002629;28;20081;-77
2023/01/21 07:04:32;;;;;;;75.75;50.08;;;-4.10;99.90;;;;;;4958116;28;20040;-76
2023/01/21 07:06:58;;;;;;;62.90;47.35;;;-4.00;99.90;;;;;;4962515;28;20094;-77
2023/01/21 07:09:24;;;;;;;59.35;46.70;;;-4.00;99.90;;;;;;5004386;28;20121;-76
2023/01/21 07:11:50;;;;;;;56.58;47.38;;;-4.00;99.90;;;;;;5005487;28;20397;-77
2023/01/21 07:14:15;;;;;;;61.88;43.13;;;-4.10;99.90;;;;;;5006109;28;20035;-76
2023/01/21 07:16:41;;;;;;;64.50;47.67;;;-4.20;99.90;;;;;;5003994;28;20543;-77
2023/01/21 07:19:07;;;;;;;55.00;45.47;;;-4.20;99.90;;;;;;5004910;28;20134;-76
2023/01/21 07:21:33;;;;;;;54.60;42.53;;;-4.30;99.90;;;;;;5004095;28;20034;-77
2023/01/21 07:23:59;;;;;;;59.53;46.15;;;-4.30;99.90;;;;;;5004486;28;20042;-76
2023/01/21 07:26:25;;;;;;;51.70;45.53;;;-4.40;99.90;;;;;;5004261;28;20039;-76
2023/01/21 07:28:51;;;;;;;57.78;42.55;;;-4.40;99.90;;;;;;4997109;28;20058;-75
2023/01/21 07:31:17;;;;;;;58.88;43.50;;;-4.40;99.90;;;;;;5003349;28;20449;-76
2023/01/21 07:33:44;;;;;;;61.33;46.58;;;-4.30;99.90;;;;;;4987865;28;20555;-76
2023/01/21 07:36:10;;;;;;;67.70;46.92;;;-4.30;99.90;;;;;;4985680;28;20066;-76
2023/01/21 07:38:36;;;;;;;56.97;45.05;;;-4.30;99.90;;;;;;5003577;28;20050;-76
2023/01/21 07:41:01;;;;;;;64.72;45.10;;;-4.40;99.90;;;;;;4988250;28;20042;-76
2023/01/21 07:43:27;;;;;;;58.08;43.10;;;-4.30;99.90;;;;;;4973122;28;20046;-76
2023/01/21 07:45:54;;;;;;;75.78;52.95;;;-4.30;99.90;;;;;;5009400;28;20038;-76
2023/01/21 07:48:20;;;;;;;67.90;49.60;;;-4.30;99.90;;;;;;5006852;28;20036;-76
2023/01/21 07:50:46;;;;;;;54.80;43.13;;;-4.30;99.90;;;;;;5008843;28;20039;-77
2023/01/21 07:53:12;;;;;;;65.18;46.58;;;-4.20;99.90;;;;;;5007973;28;20034;-76
2023/01/21 07:55:38;;;;;;;59.35;47.97;;;-4.10;99.90;;;;;;5008944;28;20092;-76
2023/01/21 07:58:04;;;;;;;56.95;42.78;;;-4.00;99.90;;;;;;5009600;28;20105;-76
2023/01/21 08:00:30;;;;;;;62.10;46.72;;;-4.00;99.90;;;;;;5005134;28;20019;-76
2023/01/21 08:02:57;;;;;;;80.63;51.17;;;-3.90;99.90;;;;;;5003739;28;20027;-77
2023/01/21 08:05:24;;;;;;;73.13;47.38;;;-3.80;99.90;;;;;;5000175;28;20058;-76
2023/01/21 08:07:50;;;;;;;79.35;52.28;;;-3.60;99.90;;;;;;4986363;28;20466;-77
2023/01/21 08:10:18;;;;;;;67.28;50.00;;;-3.60;99.90;;;;;;4995447;28;20042;-76
2023/01/21 08:12:44;;;;;;;73.18;49.58;;;-3.40;99.90;;;;;;5007918;28;20082;-76
2023/01/21 08:15:11;;;;;;;81.47;53.58;;;-3.30;99.90;;;;;;5006644;28;20100;-76
2023/01/21 08:17:38;;;;;;;71.47;53.97;;;-3.10;99.90;;;;;;5005003;28;20034;-77
2023/01/21 08:20:05;;;;;;;78.75;59.67;;;-2.70;99.90;;;;;;4993917;28;20466;-77
2023/01/21 08:22:31;;;;;;;91.72;59.50;;;-2.20;99.90;;;;;;5003145;28;20049;-77
2023/01/21 08:24:57;;;;;;;109.72;68.63;;;-1.40;99.90;;;;;;4990961;28;20034;-77
2023/01/21 08:27:23;;;;;;;103.13;63.63;;;-0.40;99.90;;;;;;4991155;28;20042;-76
2023/01/21 08:29:48;;;;;;;85.00;57.63;;;0.50;99.90;;;;;;5007384;28;20026;-77
2023/01/21 08:32:14;;;;;;;62.20;47.75;;;1.30;99.90;;;;;;5008934;28;20061;-77
2023/01/21 08:34:40;;;;;;;56.35;41.50;;;1.90;99.90;;;;;;5004391;28;20035;-77
2023/01/21 08:37:06;;;;;;;42.50;35.60;;;2.30;99.90;;;;;;5007870;28;20038;-77
2023/01/21 08:39:32;;;;;;;47.13;38.38;;;2.60;99.90;;;;;;5007142;28;20065;-77
2023/01/21 08:41:57;;;;;;;48.15;32.35;;;3.10;99.90;;;;;;5007350;28;20034;-77
2023/01/21 08:44:23;;;;;;;37.47;29.10;;;3.20;99.90;;;;;;5007147;28;20030;-77
2023/01/21 08:46:49;;;;;;;40.85;32.15;;;3.20;99.90;;;;;;5007179;28;20117;-77
2023/01/21 08:49:15;;;;;;;43.92;32.42;;;3.40;99.90;;;;;;4990837;28;20096;-77
2023/01/21 08:51:41;;;;;;;46.10;30.73;;;3.60;99.90;;;;;;5003135;28;20026;-77
2023/01/21 08:54:07;;;;;;;41.53;31.35;;;3.60;99.90;;;;;;4990689;28;20037;-77
2023/01/21 08:56:34;;;;;;;42.28;29.63;;;3.60;99.90;;;;;;4990921;28;20117;-77
2023/01/21 08:59:01;;;;;;;32.15;26.95;;;3.40;99.90;;;;;;4989782;28;20058;-77
2023/01/21 09:01:28;;;;;;;35.63;26.77;;;3.20;99.90;;;;;;5006263;28;20065;-77
2023/01/21 09:03:58;;;;;;;38.03;30.88;;;2.40;99.90;;;;;;5002800;28;20056;-77
2023/01/21 09:06:26;;;;;;;34.58;30.73;;;1.90;99.90;;;;;;5007815;28;20030;-76
2023/01/21 09:08:53;;;;;;;38.55;34.30;;;1.60;99.90;;;;;;5002767;28;20038;-77
2023/01/21 09:11:19;;;;;;;37.58;32.90;;;1.30;99.90;;;;;;4997553;28;20053;-77
2023/01/21 09:13:44;;;;;;;46.13;35.35;;;0.80;99.90;;;;;;4988974;28;20030;-76
2023/01/21 09:16:14;;;;;;;37.90;33.13;;;0.40;99.90;;;;;;5006699;28;20046;-77
2023/01/21 09:18:40;;;;;;;46.05;38.78;;;0.10;99.90;;;;;;5006121;28;20101;-76
2023/01/21 09:21:06;;;;;;;51.35;37.38;;;-0.20;99.90;;;;;;5007795;28;20440;-77
2023/01/21 09:23:33;;;;;;;57.45;41.22;;;-0.20;99.90;;;;;;4989971;28;20061;-77
2023/01/21 09:26:26;;;;;;;53.85;42.80;;;-0.40;99.90;;;;;;5006276;28;20110;-77
2023/01/21 09:28:56;;;;;;;63.63;42.30;;;-0.40;99.90;;;;;;5007780;28;20037;-76
2023/01/21 09:31:24;;;;;;;58.63;44.70;;;-0.40;99.90;;;;;;5007291;28;20031;-76
2023/01/21 09:33:53;;;;;;;57.83;44.63;;;-0.40;99.90;;;;;;5007958;28;20031;-75
2023/01/21 09:36:22;;;;;;;52.53;41.08;;;-0.40;99.90;;;;;;5007552;28;20405;-75
2023/01/21 09:38:49;;;;;;;53.30;41.67;;;-0.50;99.90;;;;;;5006043;28;20056;-75
2023/01/21 09:41:35;;;;;;;63.80;45.08;;;-0.50;99.90;;;;;;5007597;28;20044;-75
2023/01/21 09:44:13;;;;;;;55.63;43.38;;;-0.50;99.90;;;;;;5022787;28;20114;-75
2023/01/21 09:47:02;;;;;;;66.97;48.08;;;-0.60;99.90;;;;;;5022554;28;20065;-75
2023/01/21 09:49:37;;;;;;;60.27;46.10;;;-0.70;99.90;;;;;;5007297;28;20480;-75
2023/01/21 09:52:15;;;;;;;69.00;47.75;;;-0.60;99.90;;;;;;5006411;28;20340;-75
2023/01/21 09:54:41;;;;;;;61.35;48.45;;;-0.50;99.90;;;;;;5005425;28;20097;-76
2023/01/21 09:57:15;;;;;;;59.88;43.50;;;-0.50;99.90;;;;;;5007441;28;20045;-75
2023/01/21 10:00:10;;;;;;;65.55;50.13;;;-0.40;99.90;;;;;;5006847;28;20113;-77
2023/01/21 10:03:03;;;;;;;56.67;42.75;;;-0.40;99.90;;;;;;5007229;28;20069;-74
2023/01/21 10:05:53;;;;;;;67.88;45.40;;;-0.40;99.90;;;;;;5006899;28;20433;-75
2023/01/21 10:08:37;;;;;;;52.92;42.00;;;-0.30;99.90;;;;;;5006901;28;20041;-75
2023/01/21 10:11:33;;;;;;;74.53;45.38;;;-0.30;99.90;;;;;;5005811;28;20097;-74
2023/01/21 10:14:02;;;;;;;71.03;47.30;;;-0.30;99.90;;;;;;5007176;28;20038;-75
2023/01/21 10:16:49;;;;;;;61.13;44.85;;;-0.20;99.90;;;;;;5005914;28;20034;-74
2023/01/21 10:19:21;;;;;;;61.83;42.70;;;-0.30;99.90;;;;;;5006829;28;20053;-74
2023/01/21 10:21:49;;;;;;;62.22;42.20;;;-0.20;99.90;;;;;;5007045;28;20046;-75
2023/01/21 10:24:23;;;;;;;69.82;44.83;;;-0.10;99.90;;;;;;5007081;28;20038;-75
2023/01/21 10:26:51;;;;;;;58.33;44.60;;;-0.10;99.90;;;;;;5006528;28;20390;-75
2023/01/21 10:29:19;;;;;;;67.60;47.40;;;-0.10;99.90;;;;;;5006910;28;20062;-75
2023/01/21 10:32:05;;;;;;;60.47;45.13;;;-0.10;99.90;;;;;;5005621;28;20032;-74
2023/01/21 10:34:38;;;;;;;67.68;44.80;;;0.00;99.90;;;;;;5005433;28;20032;-75
2023/01/21 10:37:34;;;;;;;64.82;45.15;;;0.10;99.90;;;;;;5006640;28;20066;-77
2023/01/21 10:40:10;;;;;;;67.85;47.08;;;0.10;99.90;;;;;;5004646;28;20441;-77
2023/01/21 10:42:51;;;;;;;56.63;40.97;;;0.20;99.90;;;;;;5006911;28;20026;-75
2023/01/21 10:46:00;;;;;;;63.17;45.42;;;0.30;99.90;;;;;;5006762;28;20026;-75
2023/01/21 10:48:40;;;;;;;60.03;41.83;;;0.40;99.90;;;;;;5006043;28;20127;-74
2023/01/21 10:51:15;;;;;;;56.95;45.35;;;0.60;99.90;;;;;;5005211;28;20035;-75
2023/01/21 10:54:03;;;;;;;66.78;41.25;;;0.50;99.90;;;;;;5006465;28;20026;-75
2023/01/21 10:56:41;;;;;;;62.30;43.28;;;0.60;99.90;;;;;;5006527;28;20030;-78
2023/01/21 10:59:21;;;;;;;59.47;39.70;;;0.60;99.90;;;;;;5005840;28;20026;-76
2023/01/21 11:01:53;;;;;;;55.58;41.78;;;0.70;99.90;;;;;;5005516;28;20088;-77
2023/01/21 11:04:21;;;;;;;68.47;44.75;;;0.70;99.90;;;;;;4986949;28;20046;-76
2023/01/21 11:07:00;;;;;;;57.55;41.40;;;0.80;99.90;;;;;;4969449;28;20109;-77
2023/01/21 11:09:30;;;;;;;50.45;40.55;;;1.10;99.90;;;;;;4998739;28;20093;-77
2023/01/21 11:11:56;;;;;;;48.70;40.03;;;1.20;99.90;;;;;;5006560;28;20488;-75
2023/01/21 11:14:24;;;;;;;51.35;39.08;;;1.60;99.90;;;;;;5006226;28;20027;-77
2023/01/21 11:16:51;;;;;;;61.15;38.50;;;1.70;99.90;;;;;;5004957;28;20085;-78
2023/01/21 11:19:23;;;;;;;50.50;39.67;;;1.60;99.90;;;;;;5009193;28;20073;-78
2023/01/21 11:21:59;;;;;;;50.58;39.25;;;1.60;99.90;;;;;;5009053;28;20034;-75
2023/01/21 11:24:26;;;;;;;49.60;37.30;;;1.60;99.90;;;;;;5010162;28;20061;-77
2023/01/21 11:26:58;;;;;;;49.45;37.08;;;1.80;99.90;;;;;;5009904;28;20058;-78
2023/01/21 11:29:25;;;;;;;50.38;37.78;;;2.00;99.90;;;;;;5010111;28;20037;-78
2023/01/21 11:32:01;;;;;;;46.92;35.05;;;2.10;99.90;;;;;;5010392;28;20062;-78
2023/01/21 11:34:27;;;;;;;47.35;37.75;;;2.10;99.90;;;;;;5010037;28;20030;-77
2023/01/21 11:36:59;;;;;;;53.75;38.80;;;2.40;99.90;;;;;;4992465;28;20106;-78
2023/01/21 11:39:31;;;;;;;45.47;35.17;;;3.10;99.90;;;;;;5009533;28;20050;-78
2023/01/21 11:42:03;;;;;;;52.35;39.05;;;3.90;99.90;;;;;;5009990;28;20046;-78
2023/01/21 11:44:28;;;;;;;42.92;31.15;;;4.50;99.90;;;;;;5009780;28;20038;-78
2023/01/21 11:46:54;;;;;;;36.60;30.58;;;5.20;99.90;;;;;;5009746;28;20037;-78
2023/01/21 11:49:31;;;;;;;38.47;28.30;;;5.60;99.90;;;;;;5009317;28;20053;-78
2023/01/21 11:52:15;;;;;;;37.30;29.38;;;5.60;99.90;;;;;;5009196;28;20026;-78
2023/01/21 11:54:42;;;;;;;38.92;29.92;;;5.50;99.90;;;;;;4996160;28;20086;-79
2023/01/21 11:57:21;;;;;;;32.22;23.50;;;4.70;99.90;;;;;;5000590;28;20062;-79
2023/01/21 11:59:48;;;;;;;39.93;27.93;;;4.80;99.90;;;;;;5009726;28;20085;-78
2023/01/21 12:02:14;;;;;;;36.67;28.00;;;4.60;99.90;;;;;;5009579;28;20038;-78
2023/01/21 12:04:47;;;;;;;35.80;26.88;;;4.30;99.90;;;;;;5009235;28;20033;-78
2023/01/21 12:07:19;;;;;;;39.65;28.48;;;4.30;99.90;;;;;;5008650;28;20101;-78
2023/01/21 12:10:02;;;;;;;44.17;29.90;;;4.20;99.90;;;;;;5009259;28;20034;-78
2023/01/21 12:13:05;;;;;;;40.40;27.98;;;4.10;99.90;;;;;;5009217;28;20065;-78
2023/01/21 12:15:41;;;;;;;32.92;27.88;;;4.00;99.90;;;;;;5009230;28;20114;-80
2023/01/21 12:18:28;;;;;;;32.78;28.83;;;3.90;99.90;;;;;;5009273;28;20031;-77
2023/01/21 12:21:09;;;;;;;37.38;28.67;;;4.00;99.90;;;;;;5008595;28;20037;-78
2023/01/21 12:23:48;;;;;;;35.50;27.13;;;4.20;99.90;;;;;;5006312;28;20106;-78
2023/01/21 12:26:41;;;;;;;33.80;26.73;;;4.30;99.90;;;;;;5008999;28;20045;-78
2023/01/21 12:29:38;;;;;;;38.97;29.85;;;4.40;99.90;;;;;;5007277;28;20037;-77
2023/01/21 12:32:14;;;;;;;37.92;28.40;;;4.30;99.90;;;;;;4992576;28;20035;-77
2023/01/21 12:34:58;;;;;;;35.08;27.83;;;4.30;99.90;;;;;;4996543;28;20094;-78
2023/01/21 12:37:28;;;;;;;38.15;29.67;;;4.20;99.90;;;;;;5002288;28;20022;-77
2023/01/21 12:39:58;;;;;;;38.63;27.50;;;4.10;99.90;;;;;;4989610;28;20051;-77
2023/01/21 12:42:33;;;;;;;35.65;26.85;;;4.10;99.90;;;;;;5007588;28;20205;-77
2023/01/21 12:45:08;;;;;;;38.00;27.30;;;4.00;99.90;;;;;;5008730;28;20528;-77
2023/01/21 12:47:47;;;;;;;30.83;25.02;;;4.00;99.90;;;;;;5007320;28;20031;-77
2023/01/21 12:50:19;;;;;;;35.13;28.55;;;4.00;99.90;;;;;;5023751;28;20054;-77